createdAt,value
2022-12-05T00:01:19.357Z,101583.75
2022-12-05T00:03:47.253Z,101589.34
2022-12-05T00:06:15.197Z,101588.53
2022-12-05T00:08:43.265Z,101594.13
2022-12-05T00:11:14.824Z,101582.94
2022-12-05T00:13:46.838Z,101586.56
2022-12-05T00:45:31.346Z,101578.16
2022-12-05T00:48:00.412Z,101575.34
2022-12-05T00:50:27.982Z,101572.56
2022-12-05T00:52:55.588Z,101561.59
2022-12-05T00:55:23.145Z,101572.06
2022-12-05T00:57:50.751Z,101580.47
2022-12-05T01:00:19.180Z,101577.34
2022-12-05T01:02:46.828Z,101575.69
2022-12-05T01:05:15.844Z,101569.28
2022-12-05T01:07:43.568Z,101560.88
2022-12-05T01:10:11.260Z,101566.81
2022-12-05T01:12:38.822Z,101572.41
2022-12-05T01:47:18.386Z,101543.16
2022-12-05T01:49:46.262Z,101541.19
2022-12-05T01:52:14.972Z,101542.00
2022-12-05T01:54:42.600Z,101528.22
2022-12-05T01:57:11.619Z,101546.78
2022-12-05T01:59:39.538Z,101540.38
2022-12-05T02:02:07.266Z,101552.03
2022-12-05T02:04:36.777Z,101546.78
2022-12-05T02:07:04.916Z,101540.38
2022-12-05T02:09:32.478Z,101547.09
2022-12-05T02:12:00.799Z,101549.56
2022-12-05T02:14:29.868Z,101545.47
2022-12-05T02:16:59.456Z,101548.25
2022-12-05T02:20:00.466Z,101545.47
2022-12-05T02:22:55.040Z,101547.44
2022-12-05T02:25:35.417Z,101552.22
2022-12-05T02:28:15.217Z,101553.88
2022-12-05T02:30:44.632Z,101547.44
2022-12-05T02:33:13.694Z,101557.47
2022-12-05T02:35:43.218Z,101547.44
2022-12-05T02:38:14.117Z,101545.47
2022-12-05T02:40:43.091Z,101543.84
2022-12-05T02:43:11.899Z,101546.63
2022-12-05T02:45:39.541Z,101545.00
2022-12-05T02:48:08.501Z,101538.59
2022-12-05T02:50:36.973Z,101545.81
2022-12-05T02:53:05.435Z,101542.22
2022-12-05T02:55:33.023Z,101540.22
2022-12-05T02:58:01.227Z,101536.63
2022-12-05T03:45:54.674Z,101521.66
2022-12-05T03:48:23.660Z,101520.50
2022-12-05T03:50:51.313Z,101522.47
2022-12-05T03:53:20.890Z,101517.72
2022-12-05T03:55:51.210Z,101517.72
2022-12-05T03:58:19.204Z,101524.47
2022-12-05T04:47:38.434Z,101515.25
2022-12-05T04:50:07.737Z,101523.31
2022-12-05T04:52:35.631Z,101526.59
2022-12-05T04:55:03.615Z,101533.00
2022-12-05T04:57:32.008Z,101525.78
2022-12-05T04:59:59.894Z,101531.38
2022-12-05T05:31:48.928Z,101528.22
2022-12-05T05:34:16.893Z,101527.41
2022-12-05T05:36:44.778Z,101526.59
2022-12-05T05:39:13.211Z,101531.38
2022-12-05T05:41:40.817Z,101535.81
2022-12-05T05:44:14.199Z,101526.59
2022-12-05T05:46:41.906Z,101533.81
2022-12-05T05:49:10.940Z,101542.22
2022-12-05T05:51:38.539Z,101533.81
2022-12-05T05:54:06.255Z,101532.19
2022-12-05T05:56:34.083Z,101537.78
2022-12-05T05:59:02.033Z,101537.78
2022-12-05T06:01:29.662Z,101533.81
2022-12-05T06:03:57.366Z,101545.00
2022-12-05T06:06:26.517Z,101545.00
2022-12-05T06:08:54.677Z,101536.63
2022-12-05T06:11:26.227Z,101541.72
2022-12-05T06:13:54.297Z,101545.00
2022-12-05T06:16:22.620Z,101547.81
2022-12-05T06:18:50.438Z,101556.19
2022-12-05T06:21:18.206Z,101546.63
2022-12-05T06:23:47.161Z,101548.25
2022-12-05T06:26:15.143Z,101542.69
2022-12-05T06:28:42.877Z,101548.25
2022-12-05T06:31:10.543Z,101551.06
2022-12-05T06:33:38.192Z,101554.69
2022-12-05T06:36:06.689Z,101562.25
2022-12-05T06:38:37.888Z,101557.81
2022-12-05T06:41:10.113Z,101557.81
2022-12-05T06:43:38.024Z,101560.28
2022-12-05T06:46:05.787Z,101559.47
2022-12-05T06:48:34.431Z,101566.69
2022-12-05T06:51:03.884Z,101562.25
2022-12-05T06:53:32.316Z,101570.66
2022-12-05T06:56:01.994Z,101571.47
2022-12-05T06:58:31.718Z,101570.66
2022-12-05T07:01:32.423Z,101570.28
2022-12-05T07:04:01.192Z,101570.66
2022-12-05T07:06:29.541Z,101573.94
2022-12-05T07:08:58.802Z,101573.09
2022-12-05T07:11:28.407Z,101579.53
2022-12-05T07:13:59.081Z,101584.28
2022-12-05T07:16:27.025Z,101590.72
2022-12-05T07:18:54.890Z,101583.16
2022-12-05T07:21:23.233Z,101572.28
2022-12-05T07:23:51.223Z,101581.84
2022-12-05T07:26:19.930Z,101578.69
2022-12-05T07:28:48.839Z,101573.09
2022-12-05T07:31:19.184Z,101585.13
2022-12-05T07:33:46.994Z,101581.84
2022-12-05T07:36:15.305Z,101581.47
2022-12-05T07:38:43.784Z,101580.34
2022-12-05T07:41:13.632Z,101579.19
2022-12-05T07:43:41.699Z,101579.53
2022-12-05T07:46:11.345Z,101578.38
2022-12-05T07:48:40.976Z,101586.75
2022-12-05T07:51:09.430Z,101582.34
2022-12-05T07:53:37.494Z,101589.56
2022-12-05T07:56:05.979Z,101582.34
2022-12-05T07:58:33.876Z,101581.16
2022-12-05T08:01:06.609Z,101586.75
2022-12-05T08:03:34.338Z,101585.44
2022-12-05T08:06:04.520Z,101585.13
2022-12-05T08:08:32.126Z,101579.53
2022-12-05T08:11:03.727Z,101585.13
2022-12-05T08:13:31.416Z,101585.13
2022-12-05T08:16:01.651Z,101585.94
2022-12-05T08:18:29.375Z,101589.88
2022-12-05T08:30:49.929Z,101596.78
2022-12-05T08:33:17.562Z,101597.94
2022-12-05T08:35:45.305Z,101599.59
2022-12-05T08:38:12.924Z,101597.94
2022-12-05T08:40:41.123Z,101593.97
2022-12-05T08:43:09.285Z,101601.56
2022-12-05T08:45:37.933Z,101591.19
2022-12-05T08:48:08.106Z,101592.81
2022-12-05T08:50:36.287Z,101593.16
2022-12-05T08:53:04.661Z,101599.59
2022-12-05T08:55:32.656Z,101599.13
2022-12-05T08:58:01.284Z,101588.38
2022-12-05T09:00:29.859Z,101588.75
2022-12-05T09:02:58.403Z,101593.97
2022-12-05T09:05:29.578Z,101600.41
2022-12-05T09:08:00.167Z,101595.63
2022-12-05T09:10:29.705Z,101593.16
2022-12-05T09:12:58.477Z,101599.59
2022-12-05T09:15:27.482Z,101600.75
2022-12-05T09:17:57.191Z,101591.19
2022-12-05T09:20:25.542Z,101595.63
2022-12-05T09:22:55.667Z,101604.38
2022-12-05T09:25:24.615Z,101597.94
2022-12-05T09:27:55.002Z,101598.75
2022-12-05T09:30:24.720Z,101597.94
2022-12-05T09:32:53.672Z,101599.13
2022-12-05T09:35:22.524Z,101590.72
2022-12-05T09:37:51.317Z,101596.31
2022-12-05T09:40:22.174Z,101597.94
2022-12-05T09:42:56.338Z,101592.34
2022-12-05T09:45:26.822Z,101592.34
2022-12-05T09:47:59.076Z,101594.34
2022-12-05T09:50:28.621Z,101586.75
2022-12-05T09:53:01.521Z,101584.78
2022-12-05T09:55:34.880Z,101582.78
2022-12-05T09:58:05.047Z,101580.34
2022-12-05T10:00:33.491Z,101581.16
2022-12-05T10:03:04.917Z,101581.16
2022-12-05T10:05:42.463Z,101593.16
2022-12-05T10:08:14.102Z,101585.59
2022-12-05T10:10:45.977Z,101583.97
2022-12-05T10:13:29.272Z,101586.75
2022-12-05T10:15:57.841Z,101588.38
2022-12-05T10:18:30.918Z,101581.16
2022-12-05T10:21:00.542Z,101583.97
2022-12-05T10:23:56.008Z,101581.16
2022-12-05T10:26:19.196Z,101587.56
2022-12-05T10:28:49.875Z,101583.97
2022-12-05T10:31:19.451Z,101586.75
2022-12-05T10:33:49.008Z,101585.13
2022-12-05T10:36:18.188Z,101593.16
2022-12-05T10:38:47.026Z,101585.13
2022-12-05T10:41:15.229Z,101585.13
2022-12-05T10:43:45.807Z,101581.16
2022-12-05T10:46:17.186Z,101579.53
2022-12-05T10:48:46.365Z,101583.47
2022-12-05T10:51:15.546Z,101583.16
2022-12-05T10:53:45.097Z,101579.53
2022-12-05T10:56:32.472Z,101575.56
2022-12-05T10:59:03.255Z,101573.94
2022-12-05T11:01:33.957Z,101568.34
2022-12-05T11:04:03.346Z,101566.38
2022-12-05T11:06:33.396Z,101574.75
2022-12-05T11:09:05.897Z,101577.88
2022-12-05T11:11:35.392Z,101568.34
2022-12-05T11:14:07.189Z,101572.28
2022-12-05T11:16:37.761Z,101571.13
2022-12-05T11:19:20.428Z,101576.72
2022-12-05T11:21:48.636Z,101576.72
2022-12-05T11:24:21.679Z,101566.69
2022-12-05T11:26:49.352Z,101573.94
2022-12-05T11:29:30.144Z,101577.88
2022-12-05T11:31:58.040Z,101576.72
2022-12-05T11:34:27.174Z,101571.13
2022-12-05T11:36:55.789Z,101568.34
2022-12-05T11:39:23.483Z,101566.69
2022-12-05T11:41:57.947Z,101559.94
2022-12-05T11:44:31.153Z,101559.94
2022-12-05T11:47:01.014Z,101551.56
2022-12-05T11:49:36.481Z,101557.16
2022-12-05T11:52:05.981Z,101561.09
2022-12-05T11:55:04.047Z,101558.28
2022-12-05T11:57:36.946Z,101548.25
2022-12-05T12:00:11.057Z,101549.91
2022-12-05T12:02:48.546Z,101541.19
2022-12-05T12:05:16.608Z,101545.13
2022-12-05T12:07:50.672Z,101550.72
2022-12-05T12:10:21.591Z,101549.91
2022-12-05T12:12:52.089Z,101548.25
2022-12-05T12:15:53.085Z,101551.56
2022-12-05T12:18:40.593Z,101547.59
2022-12-05T12:21:10.362Z,101545.13
2022-12-05T12:23:40.820Z,101545.13
2022-12-05T12:26:11.533Z,101547.09
2022-12-05T12:28:40.775Z,101549.09
2022-12-05T12:31:12.215Z,101545.13
2022-12-05T12:33:42.112Z,101547.09
2022-12-05T12:36:13.103Z,101544.31
2022-12-05T12:38:51.647Z,101544.31
2022-12-05T12:41:22.474Z,101541.50
2022-12-05T12:44:04.056Z,101542.69
2022-12-05T12:46:35.230Z,101538.72
2022-12-05T12:49:08.786Z,101538.72
2022-12-05T12:51:36.330Z,101535.91
2022-12-05T12:54:54.829Z,101527.50
2022-12-05T12:57:23.672Z,101529.19
2022-12-05T12:59:55.360Z,101518.00
2022-12-05T13:02:23.846Z,101520.78
2022-12-05T13:04:53.788Z,101520.78
2022-12-05T13:07:22.587Z,101529.19
2022-12-05T13:09:52.019Z,101513.22
2022-12-05T13:12:21.415Z,101525.22
2022-12-05T13:14:50.698Z,101528.81
2022-12-05T13:17:18.830Z,101522.41
2022-12-05T13:19:47.467Z,101525.22
2022-12-05T13:22:16.398Z,101524.41
2022-12-05T13:24:43.974Z,101516.81
2022-12-05T13:27:15.994Z,101518.44
2022-12-05T13:29:44.225Z,101519.63
2022-12-05T13:32:24.552Z,101513.66
2022-12-05T13:34:52.132Z,101525.22
2022-12-05T13:37:42.313Z,101522.41
2022-12-05T13:40:43.859Z,101522.06
2022-12-05T13:43:11.741Z,101528.00
2022-12-05T13:45:39.502Z,101528.47
2022-12-05T13:48:10.723Z,101532.44
2022-12-05T13:50:43.241Z,101528.47
2022-12-05T13:53:20.775Z,101530.47
2022-12-05T13:55:55.780Z,101534.06
2022-12-05T13:58:34.972Z,101536.88
2022-12-05T14:01:17.481Z,101534.06
2022-12-05T14:03:58.363Z,101530.09
2022-12-05T14:06:40.950Z,101526.84
2022-12-05T14:09:28.224Z,101538.03
2022-12-05T14:12:10.972Z,101538.03
2022-12-05T14:14:53.688Z,101526.03
2022-12-05T14:17:22.054Z,101530.81
2022-12-05T14:19:55.412Z,101534.41
2022-12-05T14:22:38.481Z,101532.44
2022-12-05T14:25:09.737Z,101538.03
2022-12-05T14:27:44.677Z,101538.03
2022-12-05T14:30:18.986Z,101531.47
2022-12-05T14:32:46.553Z,101526.84
2022-12-05T14:35:14.718Z,101532.44
2022-12-05T14:37:48.389Z,101533.25
2022-12-05T14:40:21.749Z,101525.22
2022-12-05T14:42:54.049Z,101528.00
2022-12-05T14:45:25.879Z,101526.84
2022-12-05T14:47:54.201Z,101532.44
2022-12-05T14:50:34.899Z,101525.22
2022-12-05T14:53:30.239Z,101527.66
2022-12-05T14:56:06.495Z,101527.66
2022-12-05T14:58:35.270Z,101526.84
2022-12-05T15:01:03.320Z,101524.84
2022-12-05T15:03:31.455Z,101526.84
2022-12-05T15:06:03.491Z,101528.47
2022-12-05T15:08:31.969Z,101525.69
2022-12-05T15:11:00.889Z,101524.03
2022-12-05T15:13:29.203Z,101525.69
2022-12-05T15:15:59.474Z,101528.47
2022-12-05T15:18:28.638Z,101524.50
2022-12-05T15:20:58.600Z,101523.69
2022-12-05T15:23:42.266Z,101532.09
2022-12-05T15:26:44.900Z,101529.28
2022-12-05T15:29:06.475Z,101535.69
2022-12-05T15:31:35.063Z,101538.50
2022-12-05T15:34:04.221Z,101548.53
2022-12-05T15:36:33.627Z,101546.88
2022-12-05T15:39:03.781Z,101546.06
2022-12-05T15:41:32.723Z,101548.88
2022-12-05T15:44:00.557Z,101555.28
2022-12-05T15:46:29.531Z,101552.50
2022-12-05T15:48:57.984Z,101555.28
2022-12-05T15:51:26.956Z,101552.50
2022-12-05T15:53:55.032Z,101552.50
2022-12-05T15:56:23.603Z,101550.84
2022-12-05T15:58:53.076Z,101554.13
2022-12-05T16:01:21.264Z,101555.28
2022-12-05T16:03:49.603Z,101553.31
2022-12-05T16:06:17.765Z,101554.97
2022-12-05T16:08:45.642Z,101559.72
2022-12-05T16:11:13.376Z,101558.09
2022-12-05T16:13:43.222Z,101558.09
2022-12-05T16:16:15.893Z,101555.28
2022-12-05T16:18:49.016Z,101554.13
2022-12-05T16:21:38.045Z,101554.13
2022-12-05T16:24:08.320Z,101554.13
2022-12-05T16:26:39.692Z,101552.50
2022-12-05T16:29:09.307Z,101553.31
2022-12-05T16:31:38.992Z,101554.13
2022-12-05T16:34:07.460Z,101544.91
2022-12-05T16:36:35.088Z,101551.31
2022-12-05T16:39:03.218Z,101554.13
2022-12-05T16:41:37.103Z,101547.38
2022-12-05T16:44:11.464Z,101542.94
2022-12-05T16:46:48.030Z,101548.53
2022-12-05T16:49:34.994Z,101542.09
2022-12-05T16:52:03.548Z,101537.31
2022-12-05T16:54:31.301Z,101550.19
2022-12-05T16:57:00.013Z,101544.91
2022-12-05T16:59:32.207Z,101541.78
2022-12-05T17:02:03.088Z,101542.94
2022-12-05T17:04:31.422Z,101552.97
2022-12-05T17:06:59.379Z,101550.19
2022-12-05T17:09:27.001Z,101535.84
2022-12-05T17:11:55.522Z,101539.81
2022-12-05T17:14:23.287Z,101541.78
2022-12-05T17:16:50.992Z,101539.00
2022-12-05T17:19:20.218Z,101547.03
2022-12-05T17:21:48.469Z,101543.41
2022-12-05T17:24:17.013Z,101550.66
2022-12-05T17:26:46.303Z,101546.22
2022-12-05T17:29:14.945Z,101539.00
2022-12-05T17:31:43.123Z,101543.41
2022-12-05T17:34:15.664Z,101546.22
2022-12-05T17:36:44.949Z,101536.50
2022-12-05T17:39:13.094Z,101542.09
2022-12-05T17:41:41.705Z,101544.59
2022-12-05T17:44:13.696Z,101545.41
2022-12-05T17:46:43.677Z,101544.59
2022-12-05T17:49:14.000Z,101544.59
2022-12-05T17:52:13.531Z,101553.78
2022-12-05T17:54:34.551Z,101550.19
2022-12-05T17:57:03.025Z,101555.78
2022-12-05T17:59:32.264Z,101552.16
2022-12-05T18:02:00.421Z,101550.19
2022-12-05T18:04:28.489Z,101557.75
2022-12-05T18:06:56.712Z,101548.53
2022-12-05T18:09:25.216Z,101552.97
2022-12-05T18:11:56.485Z,101554.97
2022-12-05T18:14:25.816Z,101560.56
2022-12-05T18:16:53.627Z,101555.78
2022-12-05T18:19:21.742Z,101555.78
2022-12-05T18:21:49.639Z,101554.13
2022-12-05T18:24:17.306Z,101549.00
2022-12-05T18:26:45.196Z,101557.41
2022-12-05T18:29:14.413Z,101555.78
2022-12-05T18:31:42.939Z,101551.81
2022-12-05T18:34:11.013Z,101557.41
2022-12-05T18:36:38.807Z,101554.59
2022-12-05T18:39:06.523Z,101572.56
2022-12-05T18:41:34.157Z,101561.38
2022-12-05T18:44:02.040Z,101565.31
2022-12-05T18:46:31.210Z,101562.50
2022-12-05T18:49:03.172Z,101556.44
2022-12-05T18:51:31.188Z,101564.16
2022-12-05T18:53:59.566Z,101552.97
2022-12-05T18:56:28.045Z,101564.16
2022-12-05T18:58:56.635Z,101568.09
2022-12-05T19:01:24.295Z,101561.38
2022-12-05T19:03:53.536Z,101560.22
2022-12-05T19:06:21.885Z,101571.75
2022-12-05T19:08:49.578Z,101570.91
2022-12-05T19:11:17.693Z,101577.00
2022-12-05T19:13:47.359Z,101578.97
2022-12-05T19:16:18.544Z,101578.16
2022-12-05T19:18:46.514Z,101580.97
2022-12-05T19:21:16.058Z,101582.09
2022-12-05T19:23:43.900Z,101578.16
2022-12-05T19:26:11.464Z,101585.38
2022-12-05T19:28:39.029Z,101585.84
2022-12-05T19:31:07.877Z,101580.25
2022-12-05T19:33:35.443Z,101581.06
2022-12-05T19:36:03.906Z,101579.09
2022-12-05T19:38:33.888Z,101568.75
2022-12-05T19:41:02.086Z,101575.16
2022-12-05T19:43:30.223Z,101586.34
2022-12-05T19:45:58.074Z,101580.75
2022-12-05T19:48:25.738Z,101580.75
2022-12-05T19:50:53.927Z,101586.34
2022-12-05T19:53:21.632Z,101592.75
2022-12-05T19:55:50.672Z,101582.38
2022-12-05T19:58:18.287Z,101582.38
2022-12-05T20:00:46.448Z,101589.16
2022-12-05T20:03:14.526Z,101593.06
2022-12-05T20:05:42.196Z,101594.25
2022-12-05T20:08:09.956Z,101583.06
2022-12-05T20:10:37.943Z,101587.00
2022-12-05T20:13:24.075Z,101587.84
2022-12-05T20:15:54.632Z,101584.22
2022-12-05T20:18:22.261Z,101592.59
2022-12-05T20:20:56.969Z,101594.25
2022-12-05T20:23:24.546Z,101588.66
2022-12-05T20:25:52.129Z,101597.03
2022-12-05T20:28:21.054Z,101592.16
2022-12-05T20:30:48.678Z,101592.59
2022-12-05T20:33:16.551Z,101592.59
2022-12-05T20:35:44.126Z,101596.22
2022-12-05T20:38:12.100Z,101585.38
2022-12-05T20:40:39.716Z,101589.34
2022-12-05T20:43:07.451Z,101584.22
2022-12-05T20:45:36.532Z,101587.00
2022-12-05T20:48:04.407Z,101589.81
2022-12-05T20:50:32.244Z,101594.25
2022-12-05T20:52:59.965Z,101585.84
2022-12-05T20:55:27.608Z,101587.00
2022-12-05T20:57:55.169Z,101586.19
2022-12-05T21:00:23.948Z,101590.97
2022-12-05T21:02:52.975Z,101585.38
2022-12-05T21:05:20.624Z,101582.94
2022-12-05T21:07:48.367Z,101584.56
2022-12-05T21:10:16.160Z,101570.91
2022-12-05T21:12:43.792Z,101577.34
2022-12-05T21:15:11.621Z,101572.56
2022-12-05T21:17:39.276Z,101574.19
2022-12-05T21:20:09.051Z,101564.16
2022-12-05T21:22:36.665Z,101559.38
2022-12-05T21:25:04.452Z,101572.56
2022-12-05T21:27:32.373Z,101572.56
2022-12-05T21:30:00.472Z,101578.16
2022-12-05T21:32:28.213Z,101578.16
2022-12-05T21:34:55.773Z,101578.16
2022-12-05T21:37:24.671Z,101572.56
2022-12-05T21:39:52.270Z,101576.50
2022-12-05T21:42:19.900Z,101571.75
2022-12-05T21:44:47.591Z,101559.72
2022-12-05T21:47:15.601Z,101563.69
2022-12-05T21:49:43.273Z,101565.31
2022-12-05T21:52:10.914Z,101559.72
2022-12-05T21:54:40.160Z,101566.47
2022-12-05T21:57:07.690Z,101576.50
2022-12-05T21:59:35.321Z,101577.34
2022-12-05T22:02:03.002Z,101573.69
2022-12-05T22:04:30.607Z,101580.47
2022-12-05T22:06:58.211Z,101574.06
2022-12-05T22:09:26.051Z,101575.69
2022-12-05T22:11:55.237Z,101570.91
2022-12-05T22:14:22.870Z,101565.31
2022-12-05T22:16:50.457Z,101573.69
2022-12-05T22:19:18.040Z,101570.91
2022-12-05T22:21:45.733Z,101565.31
2022-12-05T22:24:13.595Z,101561.38
2022-12-05T22:26:41.418Z,101562.50
2022-12-05T22:29:10.557Z,101554.97
2022-12-05T22:31:38.196Z,101554.13
2022-12-05T22:34:05.805Z,101560.56
2022-12-05T22:36:33.566Z,101558.09
2022-12-05T22:39:01.143Z,101558.09
2022-12-05T22:41:28.770Z,101552.50
2022-12-05T22:43:57.236Z,101552.50
2022-12-05T22:46:26.449Z,101546.88
2022-12-05T22:48:54.064Z,101546.88
2022-12-05T22:51:24.743Z,101539.66
2022-12-05T22:53:53.349Z,101535.69
2022-12-05T22:56:21.318Z,101531.97
2022-12-05T22:58:49.317Z,101538.03
2022-12-05T23:01:20.433Z,101540.03
2022-12-05T23:03:53.436Z,101533.25
2022-12-05T23:06:21.558Z,101527.31
2022-12-05T23:08:51.385Z,101522.88
2022-12-05T23:11:21.093Z,101521.25
2022-12-05T23:13:49.563Z,101522.06
2022-12-05T23:16:21.790Z,101516.81
2022-12-05T23:18:51.357Z,101522.88
2022-12-05T23:21:19.638Z,101515.66
2022-12-05T23:23:47.525Z,101510.06
2022-12-05T23:26:15.374Z,101505.63
2022-12-05T23:28:44.497Z,101507.25
2022-12-05T23:45:46.978Z,101504.47
2022-12-05T23:48:14.602Z,101505.94
2022-12-05T23:50:42.236Z,101498.41
2022-12-05T23:53:09.888Z,101499.53
2022-12-05T23:55:37.465Z,101492.81
2022-12-05T23:58:05.211Z,101484.75
